createdAt,value
2018-04-06T00:00:07.879Z,70.6
2018-04-06T00:05:16.027Z,71.4
2018-04-06T00:10:03.095Z,71.3
2018-04-06T00:15:03.600Z,71.5
2018-04-06T00:20:03.250Z,71.7
2018-04-06T00:25:02.912Z,72
2018-04-06T00:30:05.994Z,72.2
2018-04-06T00:35:26.003Z,72.6
2018-04-06T00:40:10.702Z,72.9
2018-04-06T00:45:05.206Z,73.3
2018-04-06T00:50:05.408Z,73.5
2018-04-06T00:55:28.785Z,73.8
2018-04-06T01:00:03.348Z,73.8
2018-04-06T01:05:08.026Z,74.5
2018-04-06T01:10:18.441Z,74.7
2018-04-06T01:15:25.481Z,75.2
2018-04-06T01:20:10.716Z,75.5
2018-04-06T01:25:07.755Z,75.7
2018-04-06T01:30:11.007Z,75.7
2018-04-06T01:35:05.524Z,76.2
2018-04-06T01:40:05.921Z,76.4
2018-04-06T01:45:05.212Z,76.7
2018-04-06T01:50:06.112Z,77.2
2018-04-06T01:55:02.766Z,77.2
2018-04-06T02:00:20.741Z,77.6
2018-04-06T02:05:15.968Z,77.8
2018-04-06T02:10:07.845Z,78
2018-04-06T02:15:10.569Z,78.6
2018-04-06T02:20:10.518Z,78.9
2018-04-06T02:25:05.770Z,79.1
2018-04-06T02:30:05.655Z,79.5
2018-04-06T02:35:03.312Z,79.5
2018-04-06T02:40:05.828Z,79.8
2018-04-06T02:45:06.019Z,80
2018-04-06T02:55:06.031Z,80
2018-04-06T03:00:16.069Z,80.1
2018-04-06T03:05:02.677Z,80.2
2018-04-06T03:10:08.539Z,29.3
2018-04-06T03:15:02.854Z,80.4
2018-04-06T03:20:08.286Z,80.8
2018-04-06T03:25:03.506Z,80.8
2018-04-06T03:30:33.219Z,80.5
2018-04-06T03:35:06.018Z,80.7
2018-04-06T03:40:15.421Z,55.4
2018-04-06T03:45:15.657Z,81.2
2018-04-06T03:50:15.701Z,81.3
2018-04-06T03:55:20.909Z,81.3
2018-04-06T04:00:05.880Z,81.4
2018-04-06T04:05:17.819Z,81.3
2018-04-06T04:10:17.779Z,81.5
2018-04-06T04:15:12.995Z,81.9
2018-04-06T04:20:05.974Z,81.4
2018-04-06T04:30:07.932Z,81.3
2018-04-06T04:35:08.263Z,81.2
2018-04-06T04:40:03.393Z,81.2
2018-04-06T04:45:05.169Z,81.5
2018-04-06T04:50:10.438Z,81.7
2018-04-06T04:55:10.711Z,81.6
2018-04-06T05:00:10.713Z,81.6
2018-04-06T05:05:15.966Z,81.7
2018-04-06T05:10:12.876Z,81.7
2018-04-06T05:15:08.003Z,81.9
2018-04-06T05:20:21.090Z,82
2018-04-06T05:25:15.231Z,82.1
2018-04-06T05:30:07.620Z,81.8
2018-04-06T05:35:02.928Z,81.8
2018-04-06T05:40:05.311Z,81.7
2018-04-06T05:45:08.127Z,82.2
2018-04-06T05:50:11.149Z,81.5
2018-04-06T05:55:02.733Z,81.4
2018-04-06T06:00:13.249Z,81.3
2018-04-06T06:05:03.448Z,81.3
2018-04-06T06:10:03.164Z,81.2
2018-04-06T06:15:08.495Z,80.4
2018-04-06T06:20:07.933Z,80.1
2018-04-06T06:25:08.227Z,80
2018-04-06T06:30:07.677Z,80
2018-04-06T06:35:10.515Z,80.2
2018-04-06T06:40:05.857Z,79.8
2018-04-06T06:45:05.141Z,79.4
2018-04-06T06:50:03.532Z,79.4
2018-04-06T06:55:02.912Z,79.5
2018-04-06T07:00:10.862Z,79.4
2018-04-06T07:05:07.664Z,78.8
2018-04-06T07:10:07.658Z,78.5
2018-04-06T07:15:18.061Z,78.3
2018-04-06T07:20:05.968Z,78.4
2018-04-06T07:25:02.727Z,78.3
2018-04-06T07:30:03.057Z,77.6
2018-04-06T07:35:38.712Z,76.6
2018-04-06T07:40:26.177Z,76.3
2018-04-06T07:45:15.345Z,75.6
2018-04-06T07:50:05.201Z,74.4
2018-04-06T07:55:13.222Z,73.4
2018-04-06T08:00:03.570Z,73.4
2018-04-06T08:05:33.253Z,69.5
2018-04-06T08:10:08.148Z,69.6
2018-04-06T08:15:16.055Z,67.6
2018-04-06T08:20:08.526Z,64.2
2018-04-06T08:25:02.714Z,64.2
2018-04-06T08:30:03.170Z,64
2018-04-06T08:35:06.003Z,61.2
2018-04-06T08:40:10.711Z,62.2
2018-04-06T08:45:08.389Z,58.8
2018-04-06T08:50:25.537Z,58.9
2018-04-06T08:55:02.861Z,58.9
2018-04-06T09:00:13.576Z,58.5
2018-04-06T09:05:05.180Z,58.2
2018-04-06T09:10:08.148Z,59
2018-04-06T09:15:08.408Z,57.5
2018-04-06T09:20:02.858Z,5.9
2018-04-06T09:25:05.755Z,57.2
2018-04-06T09:30:03.148Z,57.2
2018-04-06T09:35:03.432Z,57.8
2018-04-06T09:40:08.267Z,56
2018-04-06T09:45:23.784Z,55.9
2018-04-06T09:50:20.872Z,53.9
2018-04-06T09:55:16.092Z,55
2018-04-06T10:00:21.177Z,53.6
2018-04-06T10:05:02.725Z,53.6
2018-04-06T10:10:08.629Z,52.1
2018-04-06T10:15:07.924Z,51.8
2018-04-06T10:20:06.031Z,51.6
2018-04-06T10:25:07.980Z,49.3
2018-04-06T10:30:26.054Z,49.3
2018-04-06T10:35:21.094Z,49.1
2018-04-06T10:40:13.071Z,49.2
2018-04-06T10:50:26.315Z,47.7
2018-04-06T10:55:35.808Z,45.6
2018-04-06T11:00:08.221Z,46
2018-04-06T11:05:16.081Z,45.5
2018-04-06T11:10:02.918Z,45.6
2018-04-06T11:15:31.096Z,44.8
2018-04-06T11:20:02.671Z,44.9
2018-04-06T11:25:05.460Z,44.5
2018-04-06T11:30:25.537Z,44.9
2018-04-06T11:35:10.489Z,43.1
2018-04-06T11:40:03.384Z,43.1
2018-04-06T11:45:02.832Z,42.8
2018-04-06T11:50:20.885Z,42
2018-04-06T11:55:07.658Z,38.5
2018-04-06T12:00:20.750Z,40.5
2018-04-06T12:05:05.929Z,39.8
2018-04-06T12:10:12.841Z,40.5
2018-04-06T12:15:03.032Z,40.5
2018-04-06T12:20:03.532Z,41
2018-04-06T12:25:10.468Z,39.3
2018-04-06T12:30:05.418Z,39.1
2018-04-06T12:35:03.200Z,38.9
2018-04-06T12:40:25.811Z,37.3
2018-04-06T12:45:05.850Z,36.2
2018-04-06T12:50:05.761Z,34.4
2018-04-06T12:55:12.714Z,32.5
2018-04-06T13:00:03.153Z,32.5
2018-04-06T13:05:11.160Z,30.2
2018-04-06T13:10:23.410Z,28.3
2018-04-06T13:15:05.404Z,30.1
2018-04-06T13:20:05.440Z,30
2018-04-06T13:25:03.363Z,30
2018-04-06T13:30:05.429Z,28.8
2018-04-06T13:35:05.668Z,28.1
2018-04-06T13:40:23.068Z,27
2018-04-06T13:45:08.577Z,26.2
2018-04-06T13:50:08.130Z,24.8
2018-04-06T13:55:21.086Z,24.2
2018-04-06T14:00:03.580Z,24.1
2018-04-06T14:05:03.038Z,24.5
2018-04-06T14:10:08.038Z,21.6
2018-04-06T14:15:36.366Z,21.7
2018-04-06T14:20:05.399Z,21.1
2018-04-06T14:25:05.931Z,21.3
2018-04-06T14:30:11.032Z,21.9
2018-04-06T14:35:07.942Z,20.4
2018-04-06T14:40:23.128Z,20.9
2018-04-06T14:45:07.704Z,20.2
2018-04-06T14:50:08.271Z,19.1
2018-04-06T14:55:05.331Z,20
2018-04-06T15:00:02.824Z,20
2018-04-06T15:05:05.851Z,18.1
2018-04-06T15:10:02.848Z,18
2018-04-06T15:15:05.923Z,19.8
2018-04-06T15:20:11.027Z,19.1
2018-04-06T15:25:05.606Z,19.3
2018-04-06T15:30:08.207Z,18.9
2018-04-06T15:35:08.623Z,19.6
2018-04-06T15:40:08.763Z,20.2
2018-04-06T15:45:20.749Z,21.9
2018-04-06T15:50:20.954Z,21.7
2018-04-06T16:00:03.114Z,23.2
2018-04-06T16:05:06.075Z,25.6
2018-04-06T16:10:10.582Z,26.5
2018-04-06T16:15:03.431Z,26.5
2018-04-06T16:20:13.103Z,26.4
2018-04-06T16:25:13.554Z,25.8
2018-04-06T16:30:08.327Z,26.4
2018-04-06T16:35:12.710Z,27
2018-04-06T16:40:07.706Z,27.3
2018-04-06T16:45:05.536Z,28.1
2018-04-06T16:50:05.528Z,29.7
2018-04-06T16:55:08.447Z,31.3
2018-04-06T17:00:02.882Z,31.2
2018-04-06T17:05:03.487Z,32.7
2018-04-06T17:10:03.387Z,33.3
2018-04-06T17:15:07.897Z,32.7
2018-04-06T17:20:26.116Z,33.8
2018-04-06T17:25:21.182Z,34.4
2018-04-06T17:30:03.597Z,34.4
2018-04-06T17:35:05.516Z,34.2
2018-04-06T17:40:05.936Z,33.5
2018-04-06T17:45:07.905Z,33.4
2018-04-06T17:50:38.686Z,33.7
2018-04-06T17:55:03.042Z,33.7
2018-04-06T18:00:03.424Z,34.4
2018-04-06T18:05:02.871Z,35.1
2018-04-06T18:10:20.485Z,37.2
2018-04-06T18:15:05.617Z,37
2018-04-06T18:20:28.410Z,37.9
2018-04-06T18:25:23.060Z,38.1
2018-04-06T18:30:06.054Z,38.4
2018-04-06T18:35:02.729Z,38.4
2018-04-06T18:40:32.972Z,39.7
2018-04-06T18:45:05.903Z,40.3
2018-04-06T18:50:08.343Z,40.6
2018-04-06T18:55:17.916Z,40.9
2018-04-06T19:00:08.374Z,41.4
2018-04-06T19:05:12.772Z,42
2018-04-06T19:10:05.242Z,42.9
2018-04-06T19:15:05.499Z,42.3
2018-04-06T19:20:28.255Z,43.4
2018-04-06T19:25:12.720Z,43.8
2018-04-06T19:30:03.150Z,43.8
2018-04-06T19:35:02.602Z,44
2018-04-06T19:40:13.515Z,43.7
2018-04-06T19:45:07.795Z,44.6
2018-04-06T19:50:15.837Z,44.1
2018-04-06T19:55:08.652Z,44.5
2018-04-06T20:00:08.148Z,44
2018-04-06T20:05:06.032Z,44.3
2018-04-06T20:10:05.333Z,43.5
2018-04-06T20:15:08.321Z,43.9
2018-04-06T20:20:10.335Z,43.9
2018-04-06T20:25:15.753Z,43.6
2018-04-06T20:30:03.173Z,43.6
2018-04-06T20:40:08.248Z,44.6
2018-04-06T20:45:07.609Z,44.7
2018-04-06T20:50:20.661Z,45.3
2018-04-06T20:55:08.459Z,45.7
2018-04-06T21:00:07.894Z,46.3
2018-04-06T21:05:05.854Z,46.8
2018-04-06T21:10:12.931Z,47.1
2018-04-06T21:15:28.477Z,47.4
2018-04-06T21:20:05.572Z,48
2018-04-06T21:25:15.961Z,48.4
2018-04-06T21:30:05.988Z,49
2018-04-06T21:35:05.315Z,49.5
2018-04-06T21:40:05.699Z,49.6
2018-04-06T21:45:13.654Z,49.9
2018-04-06T21:50:05.614Z,50.1
2018-04-06T21:55:11.056Z,50.3
2018-04-06T22:00:05.884Z,50.5
2018-04-06T22:05:02.877Z,50.5
2018-04-06T22:10:10.336Z,50.9
2018-04-06T22:15:20.701Z,51.7
2018-04-06T22:20:18.295Z,51.8
2018-04-06T22:25:03.467Z,51.8
2018-04-06T22:30:12.935Z,52.8
2018-04-06T22:35:05.661Z,53.8
2018-04-06T22:40:23.754Z,53.4
2018-04-06T22:45:05.405Z,53.3
2018-04-06T22:50:07.853Z,53.8
2018-04-06T22:55:18.294Z,54.9
2018-04-06T23:00:25.405Z,55.2
2018-04-06T23:05:05.324Z,55.5
2018-04-06T23:10:38.562Z,56.1
2018-04-06T23:15:13.058Z,56
2018-04-06T23:20:26.405Z,56.3
2018-04-06T23:25:20.459Z,57
2018-04-06T23:35:33.385Z,56.9
2018-04-06T23:40:18.296Z,57.5
2018-04-06T23:45:11.120Z,56.4
2018-04-06T23:50:18.650Z,56.8
2018-04-06T23:55:07.860Z,56.5
